Mississippi River (Missouri), New Madrid (07024175)

StateMissouriLatestUnknown (834000 cfs)
RiverMississippi RiverRatingObservedEstimated
Updated2021-04-10 22:00 (53 minutes ago)Flood - The river is flooding. Obstacles can be treacherous or deadly. The river should be avoided at this stage for casual trips and definitely for the inexperienced. Trips should be attempted only with protective gear and equipment.Flood(none)(none)
Discharge834000 cfs (median: 1040000 cfs)High - The river is high and potentially dangerous, especially for the young and / or inexperienced. Normal stream obstacles are sometimes difficult to navigate. Extended distances can be attempted, but canoe travel may not be advisable.High(none)(none)
Height29.91 feetGood - Conditions are ideal for a canoe or kayak. Boats typically will drag on fewer than one-quarter of riffles, if at all, and portages are unnecessary or rare. Normal float lengths can be attempted without a problem.Good(none)(none)
TrendFalling (falling over 24 hours)Low - River is low but can still be floated. Some riffles are okay but most come with significant dragging and might need a portage. Float lengths should be reduced to accommodate low flow, dragging, and portages.Low(none)(none)
USGSExternal icon USGS Site (External icon Google Maps)Poor - River is too low to float comfortably. Most or all riffles will drag or must be portaged and some obstacles (such as slick shelf rock) cause undue problems. Avoid the river at this stage for casual paddling trips.Poor(none)(none)

Trending Data

Plot Image

Trips for Mississippi River (Missouri), New Madrid (07024175)

DateStartEndDistanceConditionDischargeHeightFishingDetails

A total of 0 rows are displayed.

Condition Descriptions

Fishing Conditions

Fish Species

Notes

Classic Trip List

The classic River Trips application is still available for use. It is updated with the new system using a data retrofit. It is no longer maintained. The original River Trips application is no longer updated (as of 1 Dec 2016) but can be checked for errors or for the condition of the data before it was converted to the new system.

Gauge Data Table

ObservationHeightDischargeMaximum
Discharge
Minimum
Discharge
Mean
Discharge
P05P10P20P25P50
(Median)
P75P80P90P95
2021-04-10 22:00 29.91 834000 1150000 (2020) 550000 (2016) 936000 618000 721000 1040000 1100000 1130000
2021-04-10 21:00 29.96 836000 1150000 (2020) 550000 (2016) 936000 618000 721000 1040000 1100000 1130000
2021-04-10 20:00 30.03 839000 1150000 (2020) 550000 (2016) 936000 618000 721000 1040000 1100000 1130000
2021-04-10 19:00 30.07 840000 1150000 (2020) 550000 (2016) 936000 618000 721000 1040000 1100000 1130000
2021-04-10 18:00 30.13 842000 1150000 (2020) 550000 (2016) 936000 618000 721000 1040000 1100000 1130000
2021-04-10 17:00 30.26 847000 1150000 (2020) 550000 (2016) 936000 618000 721000 1040000 1100000 1130000
2021-04-10 16:00 30.32 849000 1150000 (2020) 550000 (2016) 936000 618000 721000 1040000 1100000 1130000
2021-04-10 15:00 30.44 853000 1150000 (2020) 550000 (2016) 936000 618000 721000 1040000 1100000 1130000
2021-04-10 14:00 30.48 855000 1150000 (2020) 550000 (2016) 936000 618000 721000 1040000 1100000 1130000
2021-04-10 13:00 30.54 857000 1150000 (2020) 550000 (2016) 936000 618000 721000 1040000 1100000 1130000
2021-04-10 12:00 30.58 858000 1150000 (2020) 550000 (2016) 936000 618000 721000 1040000 1100000 1130000
2021-04-10 11:00 30.72 863000 1150000 (2020) 550000 (2016) 936000 618000 721000 1040000 1100000 1130000
2021-04-10 10:00 30.82 867000 1150000 (2020) 550000 (2016) 936000 618000 721000 1040000 1100000 1130000
2021-04-10 09:00 30.90 870000 1150000 (2020) 550000 (2016) 936000 618000 721000 1040000 1100000 1130000
2021-04-10 08:00 30.98 873000 1150000 (2020) 550000 (2016) 936000 618000 721000 1040000 1100000 1130000
2021-04-10 07:00 31.14 879000 1150000 (2020) 550000 (2016) 936000 618000 721000 1040000 1100000 1130000
2021-04-10 06:00 31.20 881000 1150000 (2020) 550000 (2016) 936000 618000 721000 1040000 1100000 1130000
2021-04-10 05:00 31.28 884000 1150000 (2020) 550000 (2016) 936000 618000 721000 1040000 1100000 1130000
2021-04-10 04:00 31.34 886000 1150000 (2020) 550000 (2016) 936000 618000 721000 1040000 1100000 1130000
2021-04-10 03:00 31.45 890000 1150000 (2020) 550000 (2016) 936000 618000 721000 1040000 1100000 1130000
2021-04-10 02:00 31.54 893000 1150000 (2020) 550000 (2016) 936000 618000 721000 1040000 1100000 1130000
2021-04-10 01:00 31.61 896000 1150000 (2020) 550000 (2016) 936000 618000 721000 1040000 1100000 1130000
2021-04-10 00:00 31.65 897000 1150000 (2020) 550000 (2016) 936000 618000 721000 1040000 1100000 1130000
2021-04-09 23:00 31.71 899000 1210000 (2020) 583000 (2016) 952000 642000 731000 1040000 1130000 1180000
2021-04-09 22:00 31.82 903000 1210000 (2020) 583000 (2016) 952000 642000 731000 1040000 1130000 1180000
2021-04-09 21:00 31.90 906000 1210000 (2020) 583000 (2016) 952000 642000 731000 1040000 1130000 1180000
2021-04-09 20:00 31.96 909000 1210000 (2020) 583000 (2016) 952000 642000 731000 1040000 1130000 1180000
2021-04-09 19:00 31.99 910000 1210000 (2020) 583000 (2016) 952000 642000 731000 1040000 1130000 1180000
2021-04-09 18:00 32.06 912000 1210000 (2020) 583000 (2016) 952000 642000 731000 1040000 1130000 1180000
2021-04-09 17:00 32.20 918000 1210000 (2020) 583000 (2016) 952000 642000 731000 1040000 1130000 1180000
2021-04-09 16:00 32.23 919000 1210000 (2020) 583000 (2016) 952000 642000 731000 1040000 1130000 1180000
2021-04-09 15:00 32.33 922000 1210000 (2020) 583000 (2016) 952000 642000 731000 1040000 1130000 1180000
2021-04-09 14:00 32.46 927000 1210000 (2020) 583000 (2016) 952000 642000 731000 1040000 1130000 1180000
2021-04-09 13:00 32.48 928000 1210000 (2020) 583000 (2016) 952000 642000 731000 1040000 1130000 1180000
2021-04-09 12:00 32.55 931000 1210000 (2020) 583000 (2016) 952000 642000 731000 1040000 1130000 1180000
2021-04-09 11:00 32.62 933000 1210000 (2020) 583000 (2016) 952000 642000 731000 1040000 1130000 1180000
2021-04-09 10:00 32.68 936000 1210000 (2020) 583000 (2016) 952000 642000 731000 1040000 1130000 1180000
2021-04-09 09:00 32.70 936000 1210000 (2020) 583000 (2016) 952000 642000 731000 1040000 1130000 1180000
2021-04-09 08:00 32.87 943000 1210000 (2020) 583000 (2016) 952000 642000 731000 1040000 1130000 1180000
2021-04-09 07:00 32.92 945000 1210000 (2020) 583000 (2016) 952000 642000 731000 1040000 1130000 1180000
2021-04-09 06:00 33.01 948000 1210000 (2020) 583000 (2016) 952000 642000 731000 1040000 1130000 1180000
2021-04-09 05:00 33.03 949000 1210000 (2020) 583000 (2016) 952000 642000 731000 1040000 1130000 1180000
2021-04-09 04:00 33.15 953000 1210000 (2020) 583000 (2016) 952000 642000 731000 1040000 1130000 1180000
2021-04-09 03:00 33.11 952000 1210000 (2020) 583000 (2016) 952000 642000 731000 1040000 1130000 1180000
2021-04-09 02:00 33.18 955000 1210000 (2020) 583000 (2016) 952000 642000 731000 1040000 1130000 1180000
2021-04-09 01:00 33.20 955000 1210000 (2020) 583000 (2016) 952000 642000 731000 1040000 1130000 1180000
2021-04-09 00:00 33.30 959000 1210000 (2020) 583000 (2016) 952000 642000 731000 1040000 1130000 1180000

A total of 47 rows are displayed for years 2016 through 2020.